Pagrindinis puslapis
METAR-TAF:

METAR-TAF

Oro uostai :

Krokuva, Lenkija

platuma: 50-05N, ilguma: 019-48E, Aukštis: 237 m

Dabartinis oras

Ataskaita buvo paskelbta 17 minutes, ne 20:00 UTC
Vėjas 7 kt iš Vakarų/Pietvakarių
Temperatūra 2°C
Drėgmė 80%
Slėgis 1045 hPa
Matomumas 10 km arba daugiau
Apsiniaukę ne aukštis 2000 ft

METAR: EPKK 202000Z 25007KT 9999 OVC020 02/M01 Q1045

Laikas: 21:17 (20:17 UTC)

Prognozė

Ataskaita buvo paskelbta 2 valandos ir 47 minutes, ne 17:30 UTC
Prognozė galioja nuo 20 metu 18 UTC su 21 metu 18 UTC
Vėjas 7 kt iš Vakarų/Pietvakarių
Matomumas 10 km arba daugiau
Su prošvaistėmis ne aukštis 2500 ft
Tikimybė 30% :
Laikinai
nuo 20 metu 18 UTC su 21 metu 07 UTC
Matomumas: 3000 m
Su prošvaistėmis ne aukštis 700 ft
rūkana

TAF: EPKK 201730Z 2018/2118 25007KT 9999 BKN025 PROB30 TEMPO 2018/2107 3000 BR BKN007

Orai ataskaitas ir orų prognozės (METAR, TAF).

turimą stotys yra geltonos ir raudonos taškus žemėlapyje.

Perkelti pele per norėdami pamatyti stoties vardą.

Tada spustelėkite, norėdami matyti oro stebėjimo ir prognozės.

Norėdami pakeisti žemėlapį: spustelėkite ant žalios mygtukų su juodo kryžiaus žemyn,; žalią mygtuką su brūkšneliu, jei norite nutolinti; arba žalių rodyklių gretimoms žemėlapius.


METAR-TAF: